createdAt,value
2023-05-15T00:00:54.415Z,14.00
2023-05-15T00:03:21.788Z,13.90
2023-05-15T00:05:49.723Z,14.00
2023-05-15T00:08:16.538Z,14.10
2023-05-15T00:10:54.063Z,14.20
2023-05-15T00:13:27.269Z,14.30
2023-05-15T00:15:56.894Z,14.10
2023-05-15T00:18:24.403Z,14.00
2023-05-15T00:20:51.065Z,13.90
2023-05-15T00:23:20.084Z,13.60
2023-05-15T00:25:47.590Z,13.60
2023-05-15T00:28:20.189Z,13.60
2023-05-15T00:30:48.578Z,13.50
2023-05-15T00:33:17.619Z,13.40
2023-05-15T00:35:48.213Z,13.40
2023-05-15T00:38:14.914Z,13.20
2023-05-15T00:40:42.668Z,13.20
2023-05-15T00:43:12.599Z,13.20
2023-05-15T00:45:41.226Z,13.10
2023-05-15T00:48:13.758Z,13.00
2023-05-15T00:50:41.644Z,12.90
2023-05-15T00:53:19.210Z,12.80
2023-05-15T00:55:56.071Z,12.80
2023-05-15T00:58:23.904Z,12.80
2023-05-15T01:00:51.950Z,12.70
2023-05-15T01:03:27.175Z,12.70
2023-05-15T01:05:54.458Z,12.60
2023-05-15T01:08:34.462Z,12.50
2023-05-15T01:11:13.727Z,12.50
2023-05-15T01:13:44.911Z,12.40
2023-05-15T01:16:12.676Z,12.30
2023-05-15T01:18:41.944Z,12.40
2023-05-15T01:21:21.076Z,12.30
2023-05-15T01:24:17.716Z,12.40
2023-05-15T01:27:14.897Z,12.40
2023-05-15T01:30:08.390Z,12.50
2023-05-15T01:32:56.222Z,12.60
2023-05-15T01:35:31.181Z,12.50
2023-05-15T01:38:41.164Z,12.40
2023-05-15T01:41:23.972Z,12.50
2023-05-15T01:44:18.910Z,12.40
2023-05-15T01:46:52.236Z,12.40
2023-05-15T01:49:26.010Z,12.30
2023-05-15T01:52:02.113Z,12.50
2023-05-15T01:54:36.288Z,12.50
2023-05-15T01:57:04.891Z,12.50
2023-05-15T01:59:35.038Z,12.40
2023-05-15T02:02:06.661Z,12.40
2023-05-15T02:04:37.362Z,12.40
2023-05-15T02:07:04.986Z,12.30
2023-05-15T02:09:36.645Z,12.30
2023-05-15T02:12:04.385Z,12.40
2023-05-15T02:14:32.601Z,12.30
2023-05-15T02:17:02.208Z,12.30
2023-05-15T02:19:33.345Z,12.30
2023-05-15T02:22:00.145Z,12.30
2023-05-15T02:24:31.691Z,12.40
2023-05-15T02:27:11.724Z,12.20
2023-05-15T02:30:03.640Z,12.10
2023-05-15T02:32:49.620Z,12.10
2023-05-15T02:36:08.370Z,12.10
2023-05-15T02:39:02.125Z,12.00
2023-05-15T02:41:32.042Z,11.90
2023-05-15T02:44:01.614Z,12.10
2023-05-15T02:46:30.428Z,12.10
2023-05-15T02:48:57.890Z,12.20
2023-05-15T02:51:24.722Z,12.10
2023-05-15T02:53:52.430Z,12.00
2023-05-15T02:56:19.499Z,12.10
2023-05-15T02:58:46.988Z,12.20
2023-05-15T03:01:16.875Z,12.20
2023-05-15T03:03:44.368Z,12.20
2023-05-15T03:06:12.800Z,12.20
2023-05-15T03:08:41.029Z,12.20
2023-05-15T03:11:12.031Z,12.20
2023-05-15T03:13:39.064Z,12.20
2023-05-15T03:16:07.018Z,12.10
2023-05-15T03:18:34.220Z,12.20
2023-05-15T03:21:06.730Z,12.20
2023-05-15T03:23:35.219Z,12.20
2023-05-15T03:26:04.253Z,12.20
2023-05-15T03:28:32.488Z,12.20
2023-05-15T03:30:59.222Z,12.20
2023-05-15T03:33:30.702Z,12.10
2023-05-15T03:35:58.984Z,12.10
2023-05-15T03:38:25.782Z,11.90
2023-05-15T03:40:53.235Z,12.00
2023-05-15T03:43:20.461Z,12.00
2023-05-15T03:45:50.979Z,12.10
2023-05-15T03:48:18.433Z,12.10
2023-05-15T03:50:51.556Z,12.10
2023-05-15T03:53:18.249Z,12.10
2023-05-15T03:55:46.427Z,12.10
2023-05-15T03:58:13.669Z,12.00
2023-05-15T04:00:44.016Z,12.10
2023-05-15T04:03:12.141Z,12.10
2023-05-15T04:05:45.650Z,12.00
2023-05-15T04:08:14.896Z,12.00
2023-05-15T04:10:41.981Z,12.10
2023-05-15T04:13:09.086Z,12.10
2023-05-15T04:15:38.221Z,12.20
2023-05-15T04:18:07.004Z,12.10
2023-05-15T04:20:35.173Z,12.20
2023-05-15T04:23:04.516Z,12.20
2023-05-15T04:25:36.425Z,12.30
2023-05-15T04:28:03.918Z,12.20
2023-05-15T04:30:30.748Z,12.20
2023-05-15T04:32:57.970Z,12.20
2023-05-15T04:35:25.029Z,12.20
2023-05-15T04:37:52.400Z,12.30
2023-05-15T04:40:19.243Z,12.20
2023-05-15T04:42:46.382Z,12.30
2023-05-15T04:45:13.251Z,12.40
2023-05-15T04:47:40.359Z,12.50
2023-05-15T04:50:08.116Z,12.50
2023-05-15T04:52:36.020Z,12.50
2023-05-15T04:55:02.870Z,12.50
2023-05-15T04:57:30.817Z,12.60
2023-05-15T04:59:58.276Z,12.70
2023-05-15T05:02:25.474Z,12.50
2023-05-15T05:04:52.847Z,12.50
2023-05-15T05:07:19.896Z,12.20
2023-05-15T05:09:54.677Z,12.30
2023-05-15T05:12:22.068Z,12.20
2023-05-15T05:14:49.415Z,12.20
2023-05-15T05:17:16.564Z,12.40
2023-05-15T05:19:43.292Z,12.60
2023-05-15T05:22:12.037Z,12.90
2023-05-15T05:24:40.191Z,12.90
2023-05-15T05:27:07.992Z,13.10
2023-05-15T05:29:35.894Z,13.00
2023-05-15T05:32:03.378Z,12.90
2023-05-15T05:34:30.810Z,12.90
2023-05-15T05:36:57.506Z,12.90
2023-05-15T05:39:24.630Z,12.90
2023-05-15T05:41:51.412Z,12.80
2023-05-15T05:44:21.570Z,13.00
2023-05-15T05:46:48.733Z,13.10
2023-05-15T05:49:15.716Z,13.10
2023-05-15T05:51:46.730Z,13.00
2023-05-15T05:54:15.239Z,13.00
2023-05-15T05:56:43.656Z,12.90
2023-05-15T05:59:10.769Z,12.90
2023-05-15T06:01:41.055Z,12.90
2023-05-15T06:04:08.215Z,12.90
2023-05-15T06:06:36.352Z,13.20
2023-05-15T06:09:04.896Z,13.40
2023-05-15T06:11:34.657Z,13.60
2023-05-15T06:14:02.974Z,13.30
2023-05-15T06:16:29.852Z,13.30
2023-05-15T06:18:56.658Z,13.20
2023-05-15T06:21:23.398Z,13.30
2023-05-15T06:23:50.136Z,13.20
2023-05-15T06:26:16.993Z,13.20
2023-05-15T06:28:43.685Z,13.40
2023-05-15T06:31:10.667Z,13.30
2023-05-15T06:33:38.650Z,13.40
2023-05-15T06:36:05.823Z,13.70
2023-05-15T06:38:32.609Z,13.60
2023-05-15T06:40:59.297Z,13.70
2023-05-15T06:43:25.983Z,14.00
2023-05-15T06:45:52.721Z,14.10
2023-05-15T06:48:19.601Z,14.20
2023-05-15T06:50:50.044Z,14.20
2023-05-15T06:53:17.811Z,14.40
2023-05-15T06:55:47.402Z,14.40
2023-05-15T06:58:14.707Z,14.40
2023-05-15T07:00:43.028Z,14.30
2023-05-15T07:03:09.978Z,14.20
2023-05-15T07:05:37.116Z,14.30
2023-05-15T07:08:04.207Z,14.30
2023-05-15T07:10:31.367Z,14.40
2023-05-15T07:12:58.092Z,14.70
2023-05-15T07:15:24.821Z,14.80
2023-05-15T07:17:55.279Z,14.80
2023-05-15T07:20:22.361Z,14.90
2023-05-15T07:23:01.332Z,14.80
2023-05-15T07:25:31.088Z,14.80
2023-05-15T07:27:57.751Z,14.70
2023-05-15T07:30:29.076Z,15.00
2023-05-15T07:32:56.136Z,15.20
2023-05-15T07:35:23.023Z,15.40
2023-05-15T07:37:55.894Z,15.70
2023-05-15T07:40:22.688Z,16.20
2023-05-15T07:42:51.807Z,16.40
2023-05-15T07:45:18.960Z,16.60
2023-05-15T07:47:47.351Z,16.80
2023-05-15T07:50:21.015Z,16.80
2023-05-15T07:52:47.720Z,16.70
2023-05-15T07:55:14.939Z,16.60
2023-05-15T07:57:42.001Z,16.60
2023-05-15T08:00:13.674Z,16.60
2023-05-15T08:02:46.667Z,16.90
2023-05-15T08:05:16.624Z,17.00
2023-05-15T08:07:43.695Z,17.00
2023-05-15T08:10:10.842Z,17.10
2023-05-15T08:12:46.476Z,17.40
2023-05-15T08:15:13.870Z,17.90
2023-05-15T08:17:41.388Z,17.70
2023-05-15T08:20:08.693Z,17.50
2023-05-15T08:22:36.017Z,17.60
2023-05-15T08:25:06.722Z,17.90
2023-05-15T08:27:35.063Z,18.00
2023-05-15T08:30:02.775Z,18.20
2023-05-15T08:32:33.012Z,18.50
2023-05-15T08:35:01.958Z,18.50
2023-05-15T08:37:29.107Z,18.60
2023-05-15T08:40:08.479Z,19.00
2023-05-15T08:42:51.023Z,18.90
2023-05-15T08:45:18.574Z,18.80
2023-05-15T08:47:45.656Z,18.50
2023-05-15T08:50:15.256Z,18.00
2023-05-15T08:52:44.605Z,17.50
2023-05-15T08:55:12.168Z,17.20
2023-05-15T08:57:40.828Z,16.90
2023-05-15T09:00:09.341Z,16.50
2023-05-15T09:02:37.729Z,16.30
2023-05-15T09:05:08.427Z,16.00
2023-05-15T09:07:36.307Z,15.90
2023-05-15T09:10:06.252Z,16.00
2023-05-15T09:12:34.815Z,15.90
2023-05-15T09:15:22.847Z,16.00
2023-05-15T09:17:50.875Z,16.10
2023-05-15T09:20:31.461Z,16.30
2023-05-15T09:23:04.235Z,16.30
2023-05-15T09:25:57.327Z,16.50
2023-05-15T09:28:34.261Z,16.70
2023-05-15T09:31:05.595Z,17.00
2023-05-15T09:33:33.792Z,17.40
2023-05-15T09:36:08.416Z,17.90
2023-05-15T09:38:43.343Z,18.80
2023-05-15T09:41:10.189Z,19.30
2023-05-15T09:43:38.574Z,18.90
2023-05-15T09:46:34.633Z,18.50
2023-05-15T09:49:03.112Z,18.20
2023-05-15T09:51:32.288Z,18.00
2023-05-15T09:54:01.123Z,18.40
2023-05-15T09:56:30.792Z,18.80
2023-05-15T09:59:03.597Z,19.20
2023-05-15T10:01:31.971Z,19.60
2023-05-15T10:04:11.040Z,19.70
2023-05-15T10:06:46.526Z,19.60
2023-05-15T10:09:18.085Z,19.90
2023-05-15T10:11:51.664Z,19.60
2023-05-15T10:14:23.917Z,19.30
2023-05-15T10:16:53.104Z,19.00
2023-05-15T10:19:26.261Z,18.70
2023-05-15T10:21:58.753Z,18.70
2023-05-15T10:24:28.919Z,18.80
2023-05-15T10:27:00.189Z,18.80
2023-05-15T10:29:37.209Z,19.20
2023-05-15T10:32:06.716Z,19.90
2023-05-15T10:34:35.872Z,21.10
2023-05-15T10:37:04.582Z,21.40
2023-05-15T10:39:34.008Z,21.40
2023-05-15T10:42:03.099Z,21.20
2023-05-15T10:44:32.538Z,21.00
2023-05-15T10:47:09.567Z,20.40
2023-05-15T10:49:37.198Z,19.70
2023-05-15T10:52:06.486Z,19.40
2023-05-15T10:54:38.298Z,19.20
2023-05-15T10:57:09.082Z,19.60
2023-05-15T10:59:44.344Z,19.80
2023-05-15T11:02:25.875Z,20.20
2023-05-15T11:05:17.540Z,20.10
2023-05-15T11:07:47.002Z,19.80
2023-05-15T11:10:55.332Z,19.40
2023-05-15T11:13:27.599Z,19.20
2023-05-15T11:16:04.441Z,19.40
2023-05-15T11:21:33.008Z,20.20
2023-05-15T11:24:22.316Z,20.90
2023-05-15T11:27:00.162Z,21.10
2023-05-15T11:29:43.401Z,21.30
2023-05-15T11:32:51.661Z,20.90
2023-05-15T11:35:31.238Z,20.90
2023-05-15T11:38:02.274Z,21.10
2023-05-15T11:40:50.494Z,21.20
2023-05-15T11:43:36.622Z,20.80
2023-05-15T11:46:05.648Z,20.70
2023-05-15T11:48:45.543Z,19.90
2023-05-15T11:51:16.023Z,19.20
2023-05-15T11:53:46.849Z,19.00
2023-05-15T11:56:20.286Z,19.00
2023-05-15T11:59:04.406Z,19.00
2023-05-15T12:01:45.153Z,19.10
2023-05-15T12:04:17.290Z,19.30
2023-05-15T12:06:47.845Z,19.20
2023-05-15T12:09:19.068Z,19.10
2023-05-15T12:11:57.632Z,19.10
2023-05-15T12:14:47.410Z,19.50
2023-05-15T12:17:16.681Z,20.10
2023-05-15T12:19:50.327Z,20.30
2023-05-15T12:22:19.316Z,20.40
2023-05-15T12:24:46.623Z,20.00
2023-05-15T12:27:17.397Z,19.80
2023-05-15T12:29:44.528Z,20.00
2023-05-15T12:32:11.937Z,20.30
2023-05-15T12:34:38.902Z,20.10
2023-05-15T12:37:05.825Z,20.00
2023-05-15T12:39:32.896Z,20.00
2023-05-15T12:41:59.701Z,19.60
2023-05-15T12:44:27.312Z,19.40
2023-05-15T12:46:55.613Z,19.50
2023-05-15T12:49:23.126Z,19.50
2023-05-15T12:51:50.279Z,19.40
2023-05-15T12:54:19.144Z,19.40
2023-05-15T12:56:47.099Z,19.30
2023-05-15T12:59:14.038Z,19.10
2023-05-15T13:01:42.424Z,18.80
2023-05-15T13:04:10.715Z,18.70
2023-05-15T13:06:46.818Z,18.50
2023-05-15T13:09:21.570Z,18.50
2023-05-15T13:11:49.355Z,18.20
2023-05-15T13:14:19.519Z,18.20
2023-05-15T13:16:47.100Z,18.20
2023-05-15T13:19:15.094Z,18.40
2023-05-15T13:21:41.821Z,18.40
2023-05-15T13:24:11.088Z,18.40
2023-05-15T13:26:38.084Z,18.10
2023-05-15T13:29:05.309Z,18.00
2023-05-15T13:31:32.510Z,17.70
2023-05-15T13:33:59.277Z,17.40
2023-05-15T13:36:26.483Z,17.00
2023-05-15T13:38:53.184Z,17.00
2023-05-15T13:41:20.348Z,16.90
2023-05-15T13:43:49.272Z,16.90
2023-05-15T13:46:17.718Z,16.90
2023-05-15T13:48:44.853Z,16.90
2023-05-15T13:51:11.985Z,17.00
2023-05-15T13:53:38.812Z,17.20
2023-05-15T13:56:06.366Z,17.40
2023-05-15T13:58:33.284Z,17.50
2023-05-15T14:01:01.274Z,17.60
2023-05-15T14:03:31.188Z,17.50
2023-05-15T14:05:58.281Z,17.30
2023-05-15T14:08:25.150Z,17.10
2023-05-15T14:10:54.537Z,16.80
2023-05-15T14:13:21.869Z,16.70
2023-05-15T14:15:49.773Z,16.60
2023-05-15T14:18:16.614Z,16.70
2023-05-15T14:20:44.662Z,16.60
2023-05-15T14:23:11.434Z,16.90
2023-05-15T14:25:38.660Z,17.10
2023-05-15T14:28:05.439Z,17.10
2023-05-15T14:30:32.488Z,16.80
2023-05-15T14:32:59.676Z,16.30
2023-05-15T14:35:26.543Z,16.10
2023-05-15T14:37:53.259Z,16.00
2023-05-15T14:40:20.391Z,15.80
2023-05-15T14:42:47.700Z,15.60
2023-05-15T14:45:14.449Z,15.40
2023-05-15T14:47:41.696Z,15.10
2023-05-15T14:50:09.796Z,15.00
2023-05-15T14:52:36.954Z,15.10
2023-05-15T14:55:11.407Z,15.10
2023-05-15T14:57:39.249Z,15.20
2023-05-15T15:00:07.211Z,15.30
2023-05-15T15:02:34.410Z,15.50
2023-05-15T15:05:01.722Z,15.90
2023-05-15T15:07:30.554Z,15.90
2023-05-15T15:10:00.105Z,15.90
2023-05-15T15:12:28.145Z,15.90
2023-05-15T15:14:54.922Z,16.00
2023-05-15T15:17:22.102Z,15.90
2023-05-15T15:19:49.287Z,16.00
2023-05-15T15:22:16.112Z,16.10
2023-05-15T15:24:43.271Z,16.30
2023-05-15T15:27:12.114Z,16.30
2023-05-15T15:29:38.909Z,16.30
2023-05-15T15:32:05.907Z,16.20
2023-05-15T15:34:34.070Z,16.20
2023-05-15T15:37:00.775Z,16.60
2023-05-15T15:39:27.816Z,16.50
2023-05-15T15:41:57.648Z,16.30
2023-05-15T15:44:24.889Z,16.20
2023-05-15T15:46:51.604Z,16.10
2023-05-15T15:49:18.575Z,16.20
2023-05-15T15:51:45.312Z,16.10
2023-05-15T15:54:17.604Z,16.00
2023-05-15T15:56:44.338Z,16.20
2023-05-15T15:59:11.606Z,16.10
2023-05-15T16:01:38.390Z,15.90
2023-05-15T16:04:07.487Z,15.70
2023-05-15T16:06:34.424Z,15.70
2023-05-15T16:09:01.538Z,15.60
2023-05-15T16:11:32.181Z,15.70
2023-05-15T16:13:58.970Z,15.80
2023-05-15T16:16:26.201Z,15.90
2023-05-15T16:18:53.131Z,15.90
2023-05-15T16:21:21.552Z,16.00
2023-05-15T16:23:48.837Z,16.20
2023-05-15T16:26:15.572Z,16.20
2023-05-15T16:28:42.621Z,16.10
2023-05-15T16:31:09.707Z,16.10
2023-05-15T16:33:37.039Z,16.10
2023-05-15T16:36:05.569Z,16.20
2023-05-15T16:38:32.352Z,16.30
2023-05-15T16:40:59.433Z,16.20
2023-05-15T16:43:26.340Z,16.30
2023-05-15T16:45:53.215Z,16.30
2023-05-15T16:48:19.980Z,16.20
2023-05-15T16:50:47.769Z,16.10
2023-05-15T16:53:16.087Z,16.10
2023-05-15T16:55:43.018Z,16.20
2023-05-15T16:58:10.253Z,16.20
2023-05-15T17:00:37.135Z,16.00
2023-05-15T17:03:06.407Z,15.70
2023-05-15T17:05:34.140Z,15.60
2023-05-15T17:08:01.525Z,15.30
2023-05-15T17:10:28.392Z,15.20
2023-05-15T17:12:56.242Z,15.30
2023-05-15T17:15:23.919Z,15.30
2023-05-15T17:17:50.802Z,15.10
2023-05-15T17:20:18.132Z,15.10
2023-05-15T17:22:45.051Z,15.30
2023-05-15T17:25:11.780Z,15.30
2023-05-15T17:27:41.293Z,15.50
2023-05-15T17:30:10.103Z,15.60
2023-05-15T17:32:38.017Z,15.60
2023-05-15T17:35:05.654Z,15.80
2023-05-15T17:37:32.459Z,16.00
2023-05-15T17:40:00.063Z,16.10
2023-05-15T17:42:28.374Z,16.00
2023-05-15T17:44:56.454Z,16.00
2023-05-15T17:47:23.564Z,16.10
2023-05-15T17:49:50.370Z,15.70
2023-05-15T17:52:17.150Z,15.40
2023-05-15T17:54:45.079Z,15.30
2023-05-15T17:57:13.020Z,15.20
2023-05-15T17:59:40.049Z,15.00
2023-05-15T18:02:07.473Z,14.90
2023-05-15T18:04:34.717Z,15.10
2023-05-15T18:07:01.444Z,15.10
2023-05-15T18:09:28.284Z,14.90
2023-05-15T18:11:55.079Z,14.90
2023-05-15T18:14:21.848Z,14.70
2023-05-15T18:16:49.011Z,14.70
2023-05-15T18:19:16.134Z,14.60
2023-05-15T18:21:42.943Z,14.40
2023-05-15T18:24:09.867Z,14.60
2023-05-15T18:26:36.882Z,14.80
2023-05-15T18:29:04.202Z,14.90
2023-05-15T18:31:31.190Z,15.00
2023-05-15T18:33:58.005Z,14.90
2023-05-15T18:36:24.995Z,14.70
2023-05-15T18:38:51.754Z,14.50
2023-05-15T18:41:18.513Z,14.10
2023-05-15T18:43:45.402Z,13.80
2023-05-15T18:46:12.166Z,13.80
2023-05-15T18:48:39.314Z,13.80
2023-05-15T18:51:06.102Z,13.80
2023-05-15T18:53:35.293Z,13.80
2023-05-15T18:56:02.009Z,13.60
2023-05-15T18:58:28.741Z,13.60
2023-05-15T19:00:56.635Z,13.40
2023-05-15T19:03:23.855Z,13.40
2023-05-15T19:05:54.451Z,13.30
2023-05-15T19:08:21.122Z,13.20
2023-05-15T19:10:48.696Z,13.00
2023-05-15T19:13:15.506Z,13.00
2023-05-15T19:15:51.216Z,12.90
2023-05-15T19:18:18.331Z,12.90
2023-05-15T19:20:50.939Z,13.10
2023-05-15T19:23:18.715Z,12.90
2023-05-15T19:25:45.890Z,12.90
2023-05-15T19:28:14.302Z,12.80
2023-05-15T19:30:41.599Z,12.80
2023-05-15T19:33:08.944Z,12.70
2023-05-15T19:35:37.526Z,12.60
2023-05-15T19:38:04.678Z,12.70
2023-05-15T19:40:32.009Z,12.70
2023-05-15T19:42:58.779Z,12.70
2023-05-15T19:45:26.046Z,12.70
2023-05-15T19:47:53.129Z,12.70
2023-05-15T19:50:19.978Z,12.70
2023-05-15T19:52:49.069Z,12.70
2023-05-15T19:55:17.425Z,12.60
2023-05-15T19:57:45.066Z,12.70
2023-05-15T20:00:15.671Z,12.80
2023-05-15T20:02:42.997Z,12.70
2023-05-15T20:05:10.010Z,12.80
2023-05-15T20:07:38.805Z,12.70
2023-05-15T20:10:11.701Z,12.60
2023-05-15T20:12:39.940Z,12.50
2023-05-15T20:15:07.496Z,12.60
2023-05-15T20:17:34.274Z,12.40
2023-05-15T20:20:02.688Z,12.40
2023-05-15T20:22:29.955Z,12.40
2023-05-15T20:24:56.689Z,12.50
2023-05-15T20:27:24.352Z,12.30
2023-05-15T20:29:51.475Z,12.20
2023-05-15T20:32:25.647Z,12.00
2023-05-15T20:34:53.879Z,12.10
2023-05-15T20:37:24.332Z,12.00
2023-05-15T20:39:51.896Z,12.10
2023-05-15T20:42:18.651Z,12.10
2023-05-15T20:44:45.946Z,12.20
2023-05-15T20:47:12.753Z,12.20
2023-05-15T20:49:39.927Z,12.00
2023-05-15T20:52:07.213Z,11.90
2023-05-15T20:54:34.248Z,11.90
2023-05-15T20:57:01.676Z,11.90
2023-05-15T20:59:28.505Z,11.60
2023-05-15T21:01:55.337Z,11.70
2023-05-15T21:04:24.014Z,11.70
2023-05-15T21:06:51.993Z,11.60
2023-05-15T21:09:19.349Z,11.50
2023-05-15T21:11:47.277Z,11.70
2023-05-15T21:14:14.905Z,11.60
2023-05-15T21:16:44.350Z,11.70
2023-05-15T21:19:14.945Z,11.70
2023-05-15T21:21:42.081Z,11.80
2023-05-15T21:24:08.908Z,11.80
2023-05-15T21:26:36.146Z,11.80
2023-05-15T21:29:02.882Z,11.70
2023-05-15T21:31:33.218Z,11.70
2023-05-15T21:34:00.448Z,11.70
2023-05-15T21:36:27.639Z,11.70
2023-05-15T21:38:55.955Z,11.60
2023-05-15T21:41:23.035Z,11.60
2023-05-15T21:43:49.774Z,11.60
2023-05-15T21:46:19.455Z,11.50
2023-05-15T21:48:51.927Z,11.50
2023-05-15T21:51:18.666Z,11.50
2023-05-15T21:53:45.706Z,11.50
2023-05-15T21:56:13.020Z,11.50
2023-05-15T21:58:41.864Z,11.40
2023-05-15T22:01:08.916Z,11.50
2023-05-15T22:03:35.830Z,11.50
2023-05-15T22:06:02.660Z,11.30
2023-05-15T22:08:29.449Z,11.30
2023-05-15T22:10:58.723Z,11.40
2023-05-15T22:13:43.517Z,11.30
2023-05-15T22:16:19.980Z,11.30
2023-05-15T22:18:48.005Z,11.20
2023-05-15T22:21:15.459Z,11.20
2023-05-15T22:23:44.855Z,11.00
2023-05-15T22:26:20.611Z,10.90
2023-05-15T22:28:49.136Z,10.90
2023-05-15T22:31:15.873Z,10.80
2023-05-15T22:33:43.006Z,10.90
2023-05-15T22:36:09.922Z,10.80
2023-05-15T22:38:36.698Z,10.80
2023-05-15T22:41:03.776Z,10.70
2023-05-15T22:43:31.445Z,10.70
2023-05-15T22:45:58.637Z,10.60
2023-05-15T22:48:32.971Z,10.60
2023-05-15T22:51:03.224Z,10.90
2023-05-15T22:53:33.784Z,10.90
2023-05-15T22:56:03.019Z,10.80
2023-05-15T22:58:30.204Z,10.90
2023-05-15T23:00:57.006Z,10.90
2023-05-15T23:03:23.937Z,11.00
2023-05-15T23:05:56.086Z,11.00
2023-05-15T23:08:22.922Z,10.80
2023-05-15T23:10:50.126Z,10.90
2023-05-15T23:13:16.843Z,11.00
2023-05-15T23:15:44.744Z,10.90
2023-05-15T23:18:12.171Z,10.90
2023-05-15T23:20:40.596Z,11.00
2023-05-15T23:23:07.357Z,11.00
2023-05-15T23:25:34.582Z,10.90
2023-05-15T23:28:01.803Z,10.90
2023-05-15T23:30:28.705Z,10.70
2023-05-15T23:32:59.745Z,10.80
2023-05-15T23:35:26.574Z,10.90
2023-05-15T23:37:53.738Z,10.70
2023-05-15T23:40:20.896Z,10.70
2023-05-15T23:42:47.706Z,10.70
2023-05-15T23:45:15.444Z,10.70
2023-05-15T23:47:42.497Z,10.80
2023-05-15T23:50:09.822Z,10.90
2023-05-15T23:52:36.625Z,10.70
2023-05-15T23:55:04.099Z,10.60
2023-05-15T23:57:31.405Z,10.70
